Andrews A F B, District of Columbia
Current Conditions -  °F | °C
As of 5:23 AM on Monday 26 Jan 2015 (Local Time) from KADW Reporting Station
Light Rain Light Rain  
Wind Chill: -1°   Ceiling: 2700
Heat Index:   Visibility: 9mi
Dew Point:   Wind: 10mph
Humidity: 93%   Direction: 60°ENE
Pressure: 29.78"   Gusts: NA
Location:  38.8022°N, 76.8857°W
Report Text: KADW 261023Z AUTO 06009KT 9SM -RA OVC027 03/02 A2978 RMK AO2 CIG 027V032 $
Loading
Personal Weather Stations






























Interactive Weather Map New forecast layout! Learn more

10-Day Weather Forecast

Advertisements
Track Severe Weather on mobile